Terminal Aerodrome Forecast
Issued by NWS

Home | Current Version | Previous Version | Text Only | Print | Product List | Glossary On
Versions: 1 2 3 4 5 6 7 8 9 10 11 12 13 14 15 16 17 18 19 20
000
FTUS43 KPAH 170540
TAFCGI
TAF
KCGI 170540Z 1706/1806 21008KT P6SM SCT250 WS020/23040KT
     FM170800 22005KT P6SM SCT250
     FM171600 21011KT P6SM SCT250=

USA.gov is the U.S. government's official web portal to all federal, state and local government web resources and services.